createdAt,value
2023-11-25T00:01:53.463Z,6.40
2023-11-25T00:04:23.009Z,6.40
2023-11-25T00:06:51.077Z,6.30
2023-11-25T00:09:19.441Z,6.30
2023-11-25T00:11:47.547Z,6.30
2023-11-25T00:14:16.781Z,6.30
2023-11-25T00:16:44.863Z,6.30
2023-11-25T00:19:12.933Z,6.20
2023-11-25T00:21:42.537Z,6.20
2023-11-25T00:24:11.010Z,6.40
2023-11-25T00:26:39.127Z,6.40
2023-11-25T00:29:10.543Z,6.40
2023-11-25T00:31:39.459Z,6.40
2023-11-25T00:34:07.794Z,6.50
2023-11-25T00:36:36.483Z,6.50
2023-11-25T00:39:07.689Z,6.40
2023-11-25T00:41:36.263Z,6.40
2023-11-25T00:44:05.107Z,6.40
2023-11-25T00:46:33.687Z,6.40
2023-11-25T00:49:02.250Z,6.30
2023-11-25T00:51:30.302Z,6.30
2023-11-25T00:53:58.565Z,6.30
2023-11-25T00:56:28.553Z,6.40
2023-11-25T00:58:56.608Z,6.40
2023-11-25T01:01:26.223Z,6.40
2023-11-25T01:03:54.687Z,6.40
2023-11-25T01:06:22.973Z,6.40
2023-11-25T01:08:51.169Z,6.40
2023-11-25T01:11:19.354Z,6.40
2023-11-25T01:13:48.884Z,6.40
2023-11-25T01:16:18.775Z,6.40
2023-11-25T01:18:46.953Z,6.30
2023-11-25T01:21:15.061Z,6.30
2023-11-25T01:23:43.420Z,6.20
2023-11-25T01:26:13.028Z,6.10
2023-11-25T01:28:43.368Z,6.10
2023-11-25T01:31:13.240Z,6.10
2023-11-25T01:33:42.377Z,6.00
2023-11-25T01:36:11.409Z,5.90
2023-11-25T01:38:39.769Z,5.90
2023-11-25T01:41:08.269Z,5.80
2023-11-25T01:43:36.464Z,5.70
2023-11-25T01:46:05.391Z,5.70
2023-11-25T01:48:37.054Z,5.70
2023-11-25T01:51:06.145Z,5.70
2023-11-25T01:53:34.937Z,5.60
2023-11-25T01:56:03.485Z,5.60
2023-11-25T01:58:33.370Z,5.60
2023-11-25T02:01:02.426Z,5.50
2023-11-25T02:03:31.229Z,5.50
2023-11-25T02:06:00.751Z,5.50
2023-11-25T02:08:28.865Z,5.60
2023-11-25T02:10:58.070Z,5.70
2023-11-25T02:13:28.057Z,5.90
2023-11-25T02:15:56.964Z,5.90
2023-11-25T02:18:26.383Z,5.90
2023-11-25T02:20:55.620Z,6.10
2023-11-25T02:23:25.092Z,6.20
2023-11-25T02:25:54.007Z,6.10
2023-11-25T02:28:23.101Z,6.10
2023-11-25T02:30:52.683Z,6.10
2023-11-25T02:33:21.267Z,6.00
2023-11-25T02:35:49.589Z,6.00
2023-11-25T02:38:17.852Z,6.00
2023-11-25T02:40:50.305Z,6.10
2023-11-25T02:43:19.128Z,6.10
2023-11-25T02:45:49.192Z,6.20
2023-11-25T02:48:18.004Z,6.20
2023-11-25T02:50:46.476Z,6.30
2023-11-25T02:53:14.640Z,6.30
2023-11-25T02:55:43.973Z,6.30
2023-11-25T02:58:14.490Z,6.20
2023-11-25T03:00:42.625Z,6.30
2023-11-25T03:03:14.404Z,6.20
2023-11-25T03:05:48.821Z,6.40
2023-11-25T03:08:18.570Z,6.30
2023-11-25T03:10:47.690Z,6.30
2023-11-25T03:13:17.932Z,6.20
2023-11-25T03:15:46.251Z,6.30
2023-11-25T03:18:14.520Z,6.20
2023-11-25T03:20:42.614Z,6.10
2023-11-25T03:23:11.132Z,6.20
2023-11-25T03:25:40.240Z,6.10
2023-11-25T03:28:11.756Z,6.10
2023-11-25T03:30:42.926Z,6.10
2023-11-25T03:33:11.664Z,6.00
2023-11-25T03:35:39.800Z,6.00
2023-11-25T03:38:08.090Z,5.90
2023-11-25T03:40:36.353Z,5.90
2023-11-25T03:43:04.543Z,5.90
2023-11-25T03:45:32.898Z,5.90
2023-11-25T03:48:03.238Z,5.90
2023-11-25T03:50:31.466Z,5.80
2023-11-25T03:52:59.688Z,5.80
2023-11-25T03:55:27.805Z,5.90
2023-11-25T03:57:56.059Z,5.90
2023-11-25T04:00:24.224Z,6.00
2023-11-25T04:02:52.846Z,6.10
2023-11-25T04:05:23.618Z,6.10
2023-11-25T04:07:51.802Z,6.30
2023-11-25T04:10:20.023Z,6.40
2023-11-25T04:12:49.433Z,6.30
2023-11-25T04:15:20.908Z,6.30
2023-11-25T04:17:49.779Z,6.30
2023-11-25T04:20:25.219Z,6.40
2023-11-25T04:22:54.752Z,6.60
2023-11-25T04:25:24.047Z,6.60
2023-11-25T04:27:52.572Z,6.70
2023-11-25T04:30:21.126Z,6.60
2023-11-25T04:32:50.290Z,6.70
2023-11-25T04:35:18.771Z,6.60
2023-11-25T04:37:47.809Z,6.60
2023-11-25T04:40:19.711Z,6.60
2023-11-25T04:42:47.931Z,6.60
2023-11-25T04:45:18.113Z,6.50
2023-11-25T04:47:48.474Z,6.50
2023-11-25T04:50:17.819Z,6.60
2023-11-25T04:52:46.303Z,6.60
2023-11-25T04:55:15.380Z,6.60
2023-11-25T04:57:45.890Z,6.40
2023-11-25T05:00:16.190Z,6.40
2023-11-25T05:02:44.990Z,6.30
2023-11-25T05:05:14.344Z,6.30
2023-11-25T05:07:43.196Z,6.20
2023-11-25T05:10:12.614Z,6.10
2023-11-25T05:12:43.976Z,6.10
2023-11-25T05:15:14.046Z,6.00
2023-11-25T05:17:42.500Z,6.00
2023-11-25T05:20:17.008Z,5.90
2023-11-25T05:22:46.071Z,5.90
2023-11-25T05:25:15.626Z,5.90
2023-11-25T05:27:44.790Z,5.80
2023-11-25T05:30:15.147Z,5.80
2023-11-25T05:32:44.798Z,5.80
2023-11-25T05:35:14.018Z,5.80
2023-11-25T05:37:46.207Z,5.80
2023-11-25T05:40:16.539Z,6.00
2023-11-25T05:42:49.896Z,6.10
2023-11-25T05:45:21.640Z,6.10
2023-11-25T05:47:51.145Z,6.40
2023-11-25T05:50:22.542Z,6.40
2023-11-25T05:52:51.423Z,6.50
2023-11-25T05:55:21.363Z,6.60
2023-11-25T05:57:51.563Z,6.60
2023-11-25T06:00:23.100Z,6.60
2023-11-25T06:02:51.495Z,6.50
2023-11-25T06:05:19.581Z,6.40
2023-11-25T06:07:47.833Z,6.40
2023-11-25T06:10:17.046Z,6.40
2023-11-25T06:12:45.148Z,6.50
2023-11-25T06:15:14.748Z,6.50
2023-11-25T06:17:45.744Z,6.60
2023-11-25T06:20:14.264Z,6.60
2023-11-25T06:22:43.414Z,6.60
2023-11-25T06:25:14.766Z,6.50
2023-11-25T06:27:45.978Z,6.50
2023-11-25T06:30:16.015Z,6.50
2023-11-25T06:32:45.592Z,6.50
2023-11-25T06:35:13.829Z,6.50
2023-11-25T06:37:44.897Z,6.40
2023-11-25T06:40:15.293Z,6.40
2023-11-25T06:42:44.111Z,6.40
2023-11-25T06:45:15.107Z,6.40
2023-11-25T06:47:43.885Z,6.40
2023-11-25T06:50:13.811Z,6.40
2023-11-25T06:52:42.361Z,6.50
2023-11-25T06:55:11.705Z,6.50
2023-11-25T06:57:41.783Z,6.50
2023-11-25T07:00:12.371Z,6.50
2023-11-25T07:02:41.984Z,6.60
2023-11-25T07:05:10.850Z,6.70
2023-11-25T07:07:40.790Z,6.80
2023-11-25T07:10:11.986Z,6.90
2023-11-25T07:12:40.569Z,6.90
2023-11-25T07:15:10.666Z,7.00
2023-11-25T07:17:39.108Z,7.00
2023-11-25T07:20:13.330Z,7.10
2023-11-25T07:22:44.138Z,7.10
2023-11-25T07:25:14.109Z,7.00
2023-11-25T07:27:43.219Z,7.00
2023-11-25T07:30:12.320Z,7.00
2023-11-25T07:32:41.446Z,7.00
2023-11-25T07:35:10.013Z,7.00
2023-11-25T07:37:38.402Z,6.90
2023-11-25T07:40:11.096Z,6.90
2023-11-25T07:42:39.801Z,6.90
2023-11-25T07:45:11.141Z,7.00
2023-11-25T07:47:39.878Z,6.90
2023-11-25T07:50:08.858Z,6.90
2023-11-25T07:52:36.941Z,7.00
2023-11-25T07:55:06.087Z,6.90
2023-11-25T07:57:35.818Z,6.80
2023-11-25T08:00:05.173Z,6.90
2023-11-25T08:02:41.046Z,7.00
2023-11-25T08:05:10.753Z,7.10
2023-11-25T08:07:38.944Z,7.10
2023-11-25T08:10:08.884Z,7.00
2023-11-25T08:12:38.609Z,7.00
2023-11-25T08:15:07.562Z,6.90
2023-11-25T08:17:35.706Z,6.80
2023-11-25T08:20:04.185Z,6.90
2023-11-25T08:22:32.282Z,6.90
2023-11-25T08:25:02.583Z,6.80
2023-11-25T08:27:31.745Z,6.80
2023-11-25T08:30:01.401Z,6.80
2023-11-25T08:32:32.086Z,6.80
2023-11-25T08:35:00.764Z,6.70
2023-11-25T08:37:29.301Z,6.70
2023-11-25T08:39:57.588Z,6.70
2023-11-25T08:42:30.083Z,6.70
2023-11-25T08:44:58.528Z,6.80
2023-11-25T08:47:27.953Z,6.70
2023-11-25T08:49:57.761Z,6.70
2023-11-25T08:52:28.290Z,6.80
2023-11-25T08:54:56.422Z,6.80
2023-11-25T08:57:24.557Z,6.80
2023-11-25T08:59:52.679Z,6.90
2023-11-25T09:02:23.908Z,6.90
2023-11-25T09:05:03.721Z,7.00
2023-11-25T09:07:39.191Z,7.00
2023-11-25T09:10:08.980Z,7.10
2023-11-25T09:12:37.724Z,7.10
2023-11-25T09:15:09.390Z,7.00
2023-11-25T09:17:41.204Z,7.10
2023-11-25T09:20:14.387Z,7.10
2023-11-25T09:22:42.951Z,7.10
2023-11-25T09:25:13.098Z,7.10
2023-11-25T09:27:42.417Z,7.10
2023-11-25T09:30:13.052Z,7.00
2023-11-25T09:32:45.618Z,7.00
2023-11-25T09:35:16.380Z,7.00
2023-11-25T09:37:46.070Z,7.10
2023-11-25T09:40:16.743Z,7.20
2023-11-25T09:42:47.879Z,7.20
2023-11-25T09:45:17.140Z,7.30
2023-11-25T09:47:46.438Z,7.30
2023-11-25T09:50:16.445Z,7.30
2023-11-25T09:52:52.280Z,7.40
2023-11-25T09:55:23.711Z,7.60
2023-11-25T09:57:59.140Z,7.70
2023-11-25T10:00:28.580Z,7.80
2023-11-25T10:02:59.031Z,8.00
2023-11-25T10:05:30.740Z,8.10
2023-11-25T10:07:59.998Z,8.10
2023-11-25T10:10:30.257Z,7.90
2023-11-25T10:12:59.090Z,7.90
2023-11-25T10:15:27.159Z,7.90
2023-11-25T10:17:56.523Z,7.80
2023-11-25T10:20:24.836Z,7.80
2023-11-25T10:22:57.941Z,7.80
2023-11-25T10:25:29.112Z,7.80
2023-11-25T10:27:57.483Z,7.80
2023-11-25T10:30:26.214Z,7.90
2023-11-25T10:32:57.818Z,8.00
2023-11-25T10:35:26.697Z,8.00
2023-11-25T10:37:56.467Z,8.00
2023-11-25T10:40:26.117Z,8.00
2023-11-25T10:42:54.881Z,8.00
2023-11-25T10:45:28.146Z,8.20
2023-11-25T10:47:58.356Z,8.20
2023-11-25T10:50:27.668Z,8.40
2023-11-25T10:52:59.395Z,8.50
2023-11-25T10:55:30.140Z,8.50
2023-11-25T10:58:01.486Z,8.60
2023-11-25T11:00:31.342Z,8.60
2023-11-25T11:03:04.316Z,8.40
2023-11-25T11:05:43.320Z,8.50
2023-11-25T11:08:19.434Z,8.40
2023-11-25T11:10:55.721Z,8.00
2023-11-25T11:13:28.221Z,7.80
2023-11-25T11:16:01.426Z,7.80
2023-11-25T11:18:37.006Z,7.70
2023-11-25T11:21:10.157Z,7.70
2023-11-25T11:23:40.002Z,7.60
2023-11-25T11:26:24.545Z,7.60
2023-11-25T11:29:05.545Z,7.60
2023-11-25T11:32:04.312Z,7.60
2023-11-25T11:34:34.280Z,7.60
2023-11-25T11:37:03.092Z,7.60
2023-11-25T11:39:39.887Z,7.70
2023-11-25T11:42:28.484Z,7.80
2023-11-25T11:44:57.978Z,7.90
2023-11-25T11:47:26.647Z,8.10
2023-11-25T11:49:54.851Z,8.20
2023-11-25T11:52:23.006Z,8.30
2023-11-25T11:54:52.435Z,8.50
2023-11-25T11:57:20.523Z,8.50
2023-11-25T12:00:02.439Z,8.40
2023-11-25T12:02:33.239Z,8.50
2023-11-25T12:05:03.045Z,8.30
2023-11-25T12:07:31.681Z,8.30
2023-11-25T12:10:01.175Z,8.20
2023-11-25T12:12:29.455Z,8.20
2023-11-25T12:14:57.532Z,8.20
2023-11-25T12:17:25.933Z,8.20
2023-11-25T12:19:54.744Z,8.30
2023-11-25T12:22:24.163Z,8.40
2023-11-25T12:24:52.351Z,8.40
2023-11-25T12:27:22.309Z,8.40
2023-11-25T12:29:51.589Z,8.50
2023-11-25T12:32:19.863Z,8.50
2023-11-25T12:34:48.025Z,8.70
2023-11-25T12:37:16.255Z,8.70
2023-11-25T12:39:45.332Z,8.70
2023-11-25T12:42:13.679Z,8.60
2023-11-25T12:44:52.620Z,8.50
2023-11-25T12:47:20.752Z,8.30
2023-11-25T12:49:50.859Z,8.30
2023-11-25T12:52:25.290Z,8.10
2023-11-25T12:54:54.228Z,7.80
2023-11-25T12:57:27.376Z,8.00
2023-11-25T12:59:58.433Z,8.00
2023-11-25T13:02:29.184Z,7.90
2023-11-25T13:04:57.617Z,7.90
2023-11-25T13:07:32.377Z,7.80
2023-11-25T13:10:00.919Z,7.80
2023-11-25T13:12:30.115Z,7.80
2023-11-25T13:14:59.710Z,7.70
2023-11-25T13:17:29.349Z,7.80
2023-11-25T13:19:58.648Z,7.70
2023-11-25T13:22:27.107Z,7.70
2023-11-25T13:24:55.431Z,7.80
2023-11-25T13:27:23.535Z,7.80
2023-11-25T13:29:51.657Z,7.90
2023-11-25T13:32:22.017Z,8.00
2023-11-25T13:34:50.280Z,8.00
2023-11-25T13:37:18.975Z,8.00
2023-11-25T13:39:47.354Z,8.00
2023-11-25T13:42:15.554Z,8.00
2023-11-25T13:44:44.029Z,8.00
2023-11-25T13:47:12.840Z,8.00
2023-11-25T13:49:42.533Z,8.00
2023-11-25T13:52:10.947Z,8.10
2023-11-25T13:54:39.562Z,8.10
2023-11-25T13:57:07.598Z,8.20
2023-11-25T13:59:35.737Z,8.20
2023-11-25T14:02:04.199Z,8.10
2023-11-25T14:04:33.459Z,8.10
2023-11-25T14:07:02.952Z,8.10
2023-11-25T14:09:31.021Z,8.00
2023-11-25T14:12:00.631Z,8.00
2023-11-25T14:14:28.676Z,8.00
2023-11-25T14:16:59.842Z,8.10
2023-11-25T14:19:28.027Z,8.10
2023-11-25T14:21:56.092Z,8.10
2023-11-25T14:24:26.750Z,8.10
2023-11-25T14:26:55.717Z,8.10
2023-11-25T14:29:23.816Z,8.20
2023-11-25T14:31:52.006Z,8.10
2023-11-25T14:34:20.213Z,8.00
2023-11-25T14:36:48.399Z,8.00
2023-11-25T14:39:19.703Z,8.10
2023-11-25T14:41:50.240Z,8.10
2023-11-25T14:44:18.326Z,8.00
2023-11-25T14:46:51.547Z,7.90
2023-11-25T14:49:19.808Z,7.80
2023-11-25T14:51:47.839Z,7.80
2023-11-25T14:54:15.938Z,7.80
2023-11-25T14:56:45.023Z,7.90
2023-11-25T14:59:16.527Z,7.70
2023-11-25T15:01:44.722Z,7.70
2023-11-25T15:04:12.877Z,7.70
2023-11-25T15:06:42.734Z,7.70
2023-11-25T15:09:13.016Z,7.50
2023-11-25T15:11:42.218Z,7.50
2023-11-25T15:14:11.315Z,7.50
2023-11-25T15:16:40.879Z,7.50
2023-11-25T15:19:09.050Z,7.60
2023-11-25T15:21:37.690Z,7.60
2023-11-25T15:24:06.889Z,7.40
2023-11-25T15:26:36.351Z,7.40
2023-11-25T15:29:04.550Z,7.40
2023-11-25T15:31:32.775Z,7.50
2023-11-25T15:34:02.265Z,7.50
2023-11-25T15:36:30.373Z,7.60
2023-11-25T15:38:58.645Z,7.70
2023-11-25T15:41:26.727Z,7.60
2023-11-25T15:43:54.820Z,7.60
2023-11-25T15:46:23.076Z,7.50
2023-11-25T15:48:51.331Z,7.50
2023-11-25T15:51:20.759Z,7.60
2023-11-25T15:53:50.654Z,7.60
2023-11-25T15:56:19.395Z,7.70
2023-11-25T15:58:47.798Z,7.70
2023-11-25T16:01:16.090Z,7.70
2023-11-25T16:03:44.244Z,7.70
2023-11-25T16:06:15.038Z,7.60
2023-11-25T16:08:45.709Z,7.70
2023-11-25T16:11:13.890Z,7.70
2023-11-25T16:13:42.335Z,7.70
2023-11-25T16:16:11.001Z,7.60
2023-11-25T16:18:39.874Z,7.50
2023-11-25T16:21:08.688Z,7.60
2023-11-25T16:23:39.525Z,7.60
2023-11-25T16:26:13.014Z,7.50
2023-11-25T16:28:41.980Z,7.40
2023-11-25T16:31:11.430Z,7.40
2023-11-25T16:33:39.789Z,7.40
2023-11-25T16:36:09.051Z,7.40
2023-11-25T16:38:37.634Z,7.30
2023-11-25T16:41:08.071Z,7.30
2023-11-25T16:43:38.650Z,7.20
2023-11-25T16:46:07.419Z,7.20
2023-11-25T16:48:47.967Z,7.20
2023-11-25T16:51:20.446Z,7.20
2023-11-25T16:53:48.480Z,7.40
2023-11-25T16:56:16.588Z,7.50
2023-11-25T16:58:47.545Z,7.50
2023-11-25T17:01:15.854Z,7.50
2023-11-25T17:03:44.065Z,7.40
2023-11-25T17:06:14.619Z,7.30
2023-11-25T17:08:46.257Z,7.30
2023-11-25T17:11:14.300Z,7.20
2023-11-25T17:13:42.546Z,7.20
2023-11-25T17:16:16.690Z,7.30
2023-11-25T17:18:44.882Z,7.30
2023-11-25T17:21:13.875Z,7.30
2023-11-25T17:23:42.514Z,7.30
2023-11-25T17:26:10.873Z,7.30
2023-11-25T17:28:39.398Z,7.30
2023-11-25T17:31:08.762Z,7.20
2023-11-25T17:33:38.288Z,7.20
2023-11-25T17:36:06.715Z,7.20
2023-11-25T17:38:34.858Z,7.30
2023-11-25T17:41:03.035Z,7.30
2023-11-25T17:43:33.093Z,7.30
2023-11-25T17:46:01.203Z,7.20
2023-11-25T17:48:29.369Z,7.20
2023-11-25T17:50:58.880Z,7.20
2023-11-25T17:53:27.019Z,7.20
2023-11-25T17:55:56.554Z,7.30
2023-11-25T17:58:24.851Z,7.30
2023-11-25T18:00:55.581Z,7.30
2023-11-25T18:03:24.352Z,7.30
2023-11-25T18:05:52.608Z,7.30
2023-11-25T18:08:22.421Z,7.30
2023-11-25T18:10:50.866Z,7.30
2023-11-25T18:13:19.092Z,7.30
2023-11-25T18:15:48.162Z,7.20
2023-11-25T18:18:17.266Z,7.30
2023-11-25T18:20:46.094Z,7.30
2023-11-25T18:23:14.219Z,7.20
2023-11-25T18:25:44.241Z,7.20
2023-11-25T18:28:12.573Z,7.20
2023-11-25T18:30:43.761Z,7.10
2023-11-25T18:33:14.449Z,7.10
2023-11-25T18:35:42.711Z,7.10
2023-11-25T18:38:10.951Z,7.10
2023-11-25T18:40:39.548Z,7.00
2023-11-25T18:43:10.000Z,6.90
2023-11-25T18:45:38.146Z,6.90
2023-11-25T18:48:07.999Z,6.90
2023-11-25T18:50:36.309Z,6.90
2023-11-25T18:53:04.445Z,6.90
2023-11-25T18:55:32.577Z,6.90
2023-11-25T18:58:00.571Z,6.90
2023-11-25T19:00:30.397Z,6.90
2023-11-25T19:02:58.589Z,6.90
2023-11-25T19:05:26.642Z,6.90
2023-11-25T19:07:54.748Z,6.90
2023-11-25T19:10:23.394Z,6.90
2023-11-25T19:12:51.429Z,6.90
2023-11-25T19:15:19.579Z,7.00
2023-11-25T19:17:49.034Z,7.00
2023-11-25T19:20:17.399Z,7.20
2023-11-25T19:22:45.595Z,7.20
2023-11-25T19:25:13.793Z,7.20
2023-11-25T19:27:42.644Z,7.20
2023-11-25T19:30:11.281Z,7.20
2023-11-25T19:32:39.601Z,7.20
2023-11-25T19:35:09.893Z,7.30
2023-11-25T19:37:38.346Z,7.20
2023-11-25T19:40:08.902Z,7.20
2023-11-25T19:42:37.230Z,7.20
2023-11-25T19:45:06.054Z,7.20
2023-11-25T19:47:34.281Z,7.20
2023-11-25T19:50:02.532Z,7.10
2023-11-25T19:52:31.998Z,7.20
2023-11-25T19:55:00.247Z,7.10
2023-11-25T19:57:28.464Z,7.00
2023-11-25T19:59:56.960Z,7.00
2023-11-25T20:02:25.239Z,7.00
2023-11-25T20:04:53.784Z,7.00
2023-11-25T20:07:21.912Z,7.00
2023-11-25T20:09:51.327Z,7.00
2023-11-25T20:12:19.660Z,6.90
2023-11-25T20:14:48.270Z,6.80
2023-11-25T20:17:16.399Z,6.80
2023-11-25T20:19:49.664Z,6.70
2023-11-25T20:22:19.223Z,6.70
2023-11-25T20:24:47.262Z,6.70
2023-11-25T20:27:16.764Z,6.70
2023-11-25T20:29:44.880Z,6.70
2023-11-25T20:32:13.632Z,6.70
2023-11-25T20:34:42.075Z,6.60
2023-11-25T20:37:10.707Z,6.60
2023-11-25T20:39:38.794Z,6.50
2023-11-25T20:42:07.268Z,6.50
2023-11-25T20:44:36.809Z,6.50
2023-11-25T20:47:05.123Z,6.50
2023-11-25T20:49:33.224Z,6.40
2023-11-25T20:52:01.685Z,6.40
2023-11-25T20:54:29.866Z,6.40
2023-11-25T20:56:58.024Z,6.40
2023-11-25T20:59:26.225Z,6.40
2023-11-25T21:01:55.710Z,6.30
2023-11-25T21:04:23.892Z,6.30
2023-11-25T21:06:51.975Z,6.20
2023-11-25T21:09:20.741Z,6.20
2023-11-25T21:11:48.932Z,6.10
2023-11-25T21:14:19.147Z,6.10
2023-11-25T21:16:47.326Z,6.10
2023-11-25T21:19:16.668Z,6.00
2023-11-25T21:21:44.795Z,6.00
2023-11-25T21:24:13.160Z,5.90
2023-11-25T21:26:41.395Z,5.90
2023-11-25T21:29:10.728Z,5.90
2023-11-25T21:31:38.865Z,5.80
2023-11-25T21:34:07.008Z,5.80
2023-11-25T21:36:36.889Z,5.80
2023-11-25T21:39:06.044Z,5.80
2023-11-25T21:41:34.206Z,5.70
2023-11-25T21:44:02.338Z,5.70
2023-11-25T21:46:30.732Z,5.70
2023-11-25T21:48:58.876Z,5.60
2023-11-25T21:51:27.117Z,5.60
2023-11-25T21:53:56.726Z,5.60
2023-11-25T21:56:25.609Z,5.50
2023-11-25T21:58:53.764Z,5.50
2023-11-25T22:01:22.101Z,5.40
2023-11-25T22:03:50.963Z,5.50
2023-11-25T22:06:26.169Z,5.40
2023-11-25T22:08:54.248Z,5.40
2023-11-25T22:11:24.687Z,5.40
2023-11-25T22:13:52.992Z,5.40
2023-11-25T22:16:21.350Z,5.40
2023-11-25T22:18:49.807Z,5.40
2023-11-25T22:21:21.459Z,5.50
2023-11-25T22:23:50.870Z,5.50
2023-11-25T22:26:27.061Z,5.40
2023-11-25T22:28:56.542Z,5.40
2023-11-25T22:31:24.600Z,5.40
2023-11-25T22:33:53.873Z,5.40
2023-11-25T22:36:23.430Z,5.40
2023-11-25T22:38:51.596Z,5.50
2023-11-25T22:41:20.319Z,5.40
2023-11-25T22:43:50.578Z,5.40
2023-11-25T22:46:21.740Z,5.40
2023-11-25T22:48:50.364Z,5.40
2023-11-25T22:51:20.413Z,5.40
2023-11-25T22:53:48.726Z,5.40
2023-11-25T22:56:17.012Z,5.40
2023-11-25T22:58:45.864Z,5.40
2023-11-25T23:01:15.084Z,5.40
2023-11-25T23:03:46.091Z,5.40
2023-11-25T23:06:14.410Z,5.30
2023-11-25T23:08:45.787Z,5.40
2023-11-25T23:11:14.381Z,5.30
2023-11-25T23:13:42.905Z,5.30
2023-11-25T23:16:11.514Z,5.20
2023-11-25T23:18:39.678Z,5.30
2023-11-25T23:21:09.498Z,5.30
2023-11-25T23:23:43.474Z,5.30
2023-11-25T23:26:16.920Z,5.20
2023-11-25T23:28:47.333Z,5.20
2023-11-25T23:31:15.486Z,5.20
2023-11-25T23:33:43.725Z,5.20
2023-11-25T23:36:13.443Z,5.20
2023-11-25T23:38:42.159Z,5.10
2023-11-25T23:41:10.804Z,5.10
2023-11-25T23:43:39.710Z,5.10
2023-11-25T23:46:08.095Z,5.10
2023-11-25T23:48:39.600Z,5.10
2023-11-25T23:51:09.765Z,5.20
2023-11-25T23:53:48.452Z,5.40
2023-11-25T23:56:16.779Z,5.20
2023-11-25T23:58:45.833Z,5.30
